Time;durP1;ratioP1;P1;durP2;ratioP2;P2;SDS_P1;SDS_P2;PMS_P1;PMS_P2;Temp;Humidity;BMP_temperature;BMP_pressure;BME280_temperature;BME280_humidity;BME280_pressure;Samples;Min_cycle;Max_cycle;Signal;HPM_P1;HPM_P2
2022/05/01 00:00:27;;;;;;;9.03;5.40;;;9.70;99.90;;;;;;4911196;29;20295;-79
2022/05/01 00:03:30;;;;;;;6.33;5.30;;;9.60;99.90;;;;;;4901193;29;20230;-78
2022/05/01 00:06:15;;;;;;;7.17;5.30;;;9.60;99.90;;;;;;4904621;29;20753;-79
2022/05/01 00:09:01;;;;;;;6.23;5.33;;;9.60;99.90;;;;;;4905639;29;20283;-79
2022/05/01 00:11:46;;;;;;;7.63;5.23;;;9.60;99.90;;;;;;4896773;29;20234;-78
2022/05/01 00:14:30;;;;;;;9.40;5.50;;;9.60;99.90;;;;;;4901607;29;20196;-79
2022/05/01 00:17:14;;;;;;;8.20;5.63;;;9.60;99.90;;;;;;4899703;29;20200;-78
2022/05/01 00:19:59;;;;;;;7.63;4.97;;;9.60;99.90;;;;;;4899505;29;20195;-79
2022/05/01 00:22:43;;;;;;;6.30;4.90;;;9.60;99.90;;;;;;4903754;29;20200;-79
2022/05/01 00:25:28;;;;;;;7.57;5.03;;;9.50;99.90;;;;;;4897442;29;20199;-79
2022/05/01 00:28:14;;;;;;;8.77;4.93;;;9.50;99.90;;;;;;4902707;29;20265;-79
2022/05/01 00:30:59;;;;;;;10.33;5.17;;;9.50;99.90;;;;;;4905648;29;20275;-79
2022/05/01 00:36:47;;;;;;;7.43;5.37;;;9.40;99.90;;;;;;4891012;29;20273;-78
2022/05/01 00:39:31;;;;;;;9.90;5.30;;;9.40;99.90;;;;;;4898423;29;20273;-79
2022/05/01 00:42:17;;;;;;;7.93;4.87;;;9.40;99.90;;;;;;4910326;29;20311;-78
2022/05/01 00:45:01;;;;;;;7.03;4.77;;;9.40;99.90;;;;;;4891770;29;20215;-79
2022/05/01 00:47:46;;;;;;;7.43;4.97;;;9.40;99.90;;;;;;4898966;29;20199;-79
2022/05/01 00:50:32;;;;;;;8.57;5.30;;;9.40;99.90;;;;;;4899754;29;20283;-79
2022/05/01 00:53:16;;;;;;;8.63;5.50;;;9.40;99.90;;;;;;4900709;29;20191;-79
2022/05/01 00:56:02;;;;;;;7.43;5.47;;;9.40;99.90;;;;;;4900303;29;20188;-78
2022/05/01 00:58:50;;;;;;;8.10;5.90;;;9.40;99.90;;;;;;4900578;29;20211;-79
2022/05/01 01:01:36;;;;;;;9.23;5.70;;;9.40;99.90;;;;;;4908039;29;20279;-79
2022/05/01 01:04:20;;;;;;;11.70;5.93;;;9.30;99.90;;;;;;4899845;29;20235;-78
2022/05/01 01:07:05;;;;;;;7.43;5.20;;;9.30;99.90;;;;;;4901200;29;20213;-79
2022/05/01 01:09:49;;;;;;;9.73;5.10;;;9.20;99.90;;;;;;4894309;29;20684;-79
2022/05/01 01:15:37;;;;;;;9.13;4.93;;;9.20;99.90;;;;;;4896159;29;20290;-78
2022/05/01 01:18:22;;;;;;;11.40;5.50;;;9.20;99.90;;;;;;4897784;29;20244;-78
2022/05/01 01:21:11;;;;;;;8.60;4.97;;;9.20;99.90;;;;;;4895803;29;20232;-78
2022/05/01 01:23:57;;;;;;;7.10;5.53;;;9.20;99.90;;;;;;4906697;29;20223;-78
2022/05/01 01:26:41;;;;;;;8.47;6.07;;;9.20;99.90;;;;;;4902252;29;20204;-78
2022/05/01 01:32:31;;;;;;;12.23;5.97;;;9.10;99.90;;;;;;4900105;29;20302;-78
2022/05/01 01:35:16;;;;;;;8.60;5.37;;;9.10;99.90;;;;;;4896903;29;20200;-78
2022/05/01 01:38:04;;;;;;;7.90;5.23;;;9.10;99.90;;;;;;4904683;29;20257;-78
2022/05/01 01:40:55;;;;;;;9.37;5.90;;;9.10;99.90;;;;;;4896398;29;20251;-78
2022/05/01 01:43:42;;;;;;;8.60;5.67;;;9.10;99.90;;;;;;4896365;29;20730;-78
2022/05/01 01:46:26;;;;;;;7.77;5.30;;;9.10;99.90;;;;;;4905719;29;20202;-77
2022/05/01 01:49:11;;;;;;;7.97;5.63;;;9.10;99.90;;;;;;4901947;29;20204;-78
2022/05/01 01:51:56;;;;;;;9.40;5.97;;;9.10;99.90;;;;;;4898182;29;20227;-77
2022/05/01 01:54:40;;;;;;;12.00;5.70;;;9.10;99.90;;;;;;4905966;29;20231;-79
2022/05/01 01:57:24;;;;;;;8.60;5.97;;;9.10;99.90;;;;;;4905299;29;20272;-78
2022/05/01 02:00:09;;;;;;;7.70;5.80;;;9.00;99.90;;;;;;4901770;29;20247;-78
2022/05/01 02:02:58;;;;;;;11.30;5.50;;;9.00;99.90;;;;;;4897338;29;20240;-78
2022/05/01 02:05:42;;;;;;;10.03;5.90;;;9.00;99.90;;;;;;4899728;29;20200;-78
2022/05/01 02:08:27;;;;;;;9.23;5.80;;;9.00;99.90;;;;;;4899963;29;20333;-78
2022/05/01 02:11:12;;;;;;;7.30;5.90;;;9.00;99.90;;;;;;4907532;29;20272;-77
2022/05/01 02:13:56;;;;;;;9.27;6.10;;;9.00;99.90;;;;;;4906840;29;20696;-77
2022/05/01 02:16:40;;;;;;;7.53;5.63;;;8.90;99.90;;;;;;4895365;29;20196;-77
2022/05/01 02:19:25;;;;;;;7.40;5.90;;;8.90;99.90;;;;;;4900843;29;20199;-77
2022/05/01 02:22:10;;;;;;;7.03;5.50;;;8.90;99.90;;;;;;4903609;29;20284;-79
2022/05/01 02:24:54;;;;;;;8.63;5.83;;;8.90;99.90;;;;;;4905508;29;20212;-78
2022/05/01 02:27:38;;;;;;;10.00;5.40;;;8.90;99.90;;;;;;4898423;29;20193;-77
2022/05/01 02:30:23;;;;;;;10.53;5.97;;;8.80;99.90;;;;;;4909603;29;20291;-78
2022/05/01 02:33:07;;;;;;;10.53;5.73;;;8.80;99.90;;;;;;4896069;29;20208;-78
2022/05/01 02:35:51;;;;;;;8.27;5.90;;;8.80;99.90;;;;;;4901134;29;20205;-78
2022/05/01 02:38:36;;;;;;;9.30;5.77;;;8.70;99.90;;;;;;4909676;29;20308;-78
2022/05/01 02:41:20;;;;;;;8.07;5.63;;;8.70;99.90;;;;;;4895902;29;20279;-78
2022/05/01 02:44:05;;;;;;;8.87;5.63;;;8.60;99.90;;;;;;4904354;29;20203;-78
2022/05/01 02:46:49;;;;;;;8.30;5.53;;;8.60;99.90;;;;;;4893472;29;20200;-78
2022/05/01 02:49:35;;;;;;;9.77;5.87;;;8.50;99.90;;;;;;4900888;29;20241;-77
2022/05/01 02:52:20;;;;;;;8.17;5.50;;;8.50;99.90;;;;;;4911425;29;20238;-77
2022/05/01 02:55:05;;;;;;;10.37;6.57;;;8.40;99.90;;;;;;4907865;29;20249;-77
2022/05/01 02:57:49;;;;;;;9.57;6.03;;;8.30;99.90;;;;;;4899638;29;20200;-78
2022/05/01 03:00:34;;;;;;;8.87;6.37;;;8.30;99.90;;;;;;4903775;29;20257;-77
2022/05/01 03:03:18;;;;;;;11.40;6.77;;;8.30;99.90;;;;;;4891173;29;20207;-78
2022/05/01 03:06:03;;;;;;;10.03;6.37;;;8.30;99.90;;;;;;4907570;29;20217;-78
2022/05/01 03:08:47;;;;;;;8.27;5.80;;;8.30;99.90;;;;;;4911516;29;20192;-77
2022/05/01 03:11:36;;;;;;;7.07;5.37;;;8.30;99.90;;;;;;4903795;29;20228;-78
2022/05/01 03:14:21;;;;;;;10.20;6.10;;;8.30;99.90;;;;;;4900194;29;20210;-77
2022/05/01 03:17:05;;;;;;;8.37;6.00;;;8.30;99.90;;;;;;4895425;29;20276;-77
2022/05/01 03:22:53;;;;;;;7.33;5.27;;;8.30;99.90;;;;;;4903841;29;20202;-77
2022/05/01 03:25:37;;;;;;;9.43;6.40;;;8.20;99.90;;;;;;4897588;29;20203;-77
2022/05/01 03:28:21;;;;;;;10.40;5.90;;;8.20;99.90;;;;;;4899804;29;20200;-77
2022/05/01 03:31:09;;;;;;;7.97;5.70;;;8.30;99.90;;;;;;4898223;29;20283;-77
2022/05/01 03:33:57;;;;;;;11.43;6.60;;;8.30;99.90;;;;;;4904896;29;20224;-77
2022/05/01 03:36:41;;;;;;;9.97;6.40;;;8.30;99.90;;;;;;4905158;29;20209;-77
2022/05/01 03:39:26;;;;;;;8.60;6.27;;;8.30;99.90;;;;;;4903204;29;20203;-78
2022/05/01 03:42:11;;;;;;;9.17;6.63;;;8.20;99.90;;;;;;4886096;29;20246;-78
2022/05/01 03:44:56;;;;;;;9.60;6.77;;;8.20;99.90;;;;;;4900180;29;20224;-76
2022/05/01 03:47:40;;;;;;;12.13;7.33;;;8.10;99.90;;;;;;4907328;29;20200;-77
2022/05/01 03:50:25;;;;;;;10.40;7.13;;;8.10;99.90;;;;;;4906669;29;20216;-77
2022/05/01 03:53:09;;;;;;;11.03;6.90;;;8.10;99.90;;;;;;4896785;29;20237;-79
2022/05/01 03:55:54;;;;;;;8.77;7.17;;;8.00;99.90;;;;;;4896309;29;20196;-78
2022/05/01 03:58:38;;;;;;;14.03;7.23;;;8.10;99.90;;;;;;4903978;29;20192;-78
2022/05/01 04:01:23;;;;;;;10.67;7.17;;;8.10;99.90;;;;;;4900192;29;20300;-77
2022/05/01 04:04:07;;;;;;;9.00;6.73;;;8.10;99.90;;;;;;4898078;29;20195;-80
2022/05/01 04:06:52;;;;;;;10.83;7.00;;;8.10;99.90;;;;;;4901241;29;20688;-77
2022/05/01 04:09:36;;;;;;;9.40;7.30;;;8.10;99.90;;;;;;4910440;29;20446;-78
2022/05/01 04:12:21;;;;;;;10.90;7.20;;;8.10;99.90;;;;;;4903257;29;20215;-78
2022/05/01 04:15:07;;;;;;;11.57;7.53;;;8.10;99.90;;;;;;4900268;29;20260;-78
2022/05/01 04:17:51;;;;;;;9.23;6.37;;;8.10;99.90;;;;;;4878503;29;20253;-77
2022/05/01 04:20:37;;;;;;;9.37;7.07;;;8.10;99.90;;;;;;4905309;29;20220;-78
2022/05/01 04:23:21;;;;;;;10.90;7.30;;;8.10;99.90;;;;;;4907221;29;20331;-78
2022/05/01 04:26:06;;;;;;;13.43;7.20;;;8.10;99.90;;;;;;4902625;29;20188;-77
2022/05/01 04:31:53;;;;;;;12.77;7.73;;;8.10;99.90;;;;;;4901397;29;20239;-78
2022/05/01 04:34:37;;;;;;;9.50;7.67;;;8.10;99.90;;;;;;4905491;29;20192;-77
2022/05/01 04:37:22;;;;;;;10.97;8.23;;;8.10;99.90;;;;;;4900215;29;20622;-78
2022/05/01 04:40:07;;;;;;;10.07;7.73;;;8.00;99.90;;;;;;4883566;29;20556;-78
2022/05/01 04:42:51;;;;;;;12.30;7.83;;;8.00;99.90;;;;;;4900387;29;20223;-78
2022/05/01 04:45:39;;;;;;;13.03;7.87;;;8.00;99.90;;;;;;4900807;29;20281;-78
2022/05/01 04:48:25;;;;;;;11.27;7.87;;;8.00;99.90;;;;;;4899023;29;20272;-78
2022/05/01 04:51:09;;;;;;;10.90;8.20;;;8.00;99.90;;;;;;4896744;29;20272;-78
2022/05/01 04:53:53;;;;;;;10.00;7.87;;;8.00;99.90;;;;;;4897802;29;20191;-78
2022/05/01 04:59:41;;;;;;;12.20;8.20;;;8.10;99.90;;;;;;4909889;29;20200;-78
2022/05/01 05:02:34;;;;;;;11.27;8.37;;;8.10;99.90;;;;;;4897724;29;20265;-77
2022/05/01 05:05:20;;;;;;;11.73;8.23;;;8.10;99.90;;;;;;4896096;29;20196;-78
2022/05/01 05:11:08;;;;;;;10.00;7.77;;;8.10;99.90;;;;;;4897567;29;20260;-79
2022/05/01 05:13:53;;;;;;;16.47;8.30;;;8.10;99.90;;;;;;4899933;29;20196;-79
2022/05/01 05:16:37;;;;;;;13.67;8.40;;;8.10;99.90;;;;;;4905260;29;20200;-79
2022/05/01 05:19:21;;;;;;;12.23;8.27;;;8.20;99.90;;;;;;4897869;29;20200;-79
2022/05/01 05:22:06;;;;;;;11.33;7.77;;;8.20;99.90;;;;;;4902833;29;20207;-80
2022/05/01 05:24:50;;;;;;;10.30;7.60;;;8.20;99.90;;;;;;4902318;29;20208;-79
2022/05/01 05:27:34;;;;;;;11.53;8.33;;;8.10;99.90;;;;;;4899400;29;20572;-79
2022/05/01 05:30:18;;;;;;;10.90;8.10;;;8.20;99.90;;;;;;4903206;29;20211;-78
2022/05/01 05:33:06;;;;;;;10.43;8.17;;;8.20;99.90;;;;;;4905119;29;20304;-79
2022/05/01 05:35:50;;;;;;;10.43;7.97;;;8.20;99.90;;;;;;4901227;29;20256;-79
2022/05/01 05:38:34;;;;;;;10.50;7.60;;;8.20;99.90;;;;;;4907695;29;20200;-79
2022/05/01 05:41:18;;;;;;;11.43;7.70;;;8.30;99.90;;;;;;4900986;29;20247;-78
2022/05/01 05:44:04;;;;;;;11.90;7.50;;;8.30;99.90;;;;;;4909029;29;20212;-79
2022/05/01 05:46:48;;;;;;;9.47;7.17;;;8.30;99.90;;;;;;4899731;29;20191;-78
2022/05/01 05:49:32;;;;;;;10.07;6.77;;;8.30;99.90;;;;;;4908396;29;20235;-79
2022/05/01 05:52:17;;;;;;;9.90;6.50;;;8.40;99.90;;;;;;4909642;29;20714;-79
2022/05/01 05:55:01;;;;;;;9.80;7.70;;;8.40;99.90;;;;;;4904324;29;20195;-79
2022/05/01 05:57:45;;;;;;;10.97;7.50;;;8.50;99.90;;;;;;4901338;29;20187;-79
2022/05/01 06:00:30;;;;;;;9.83;7.13;;;8.50;99.90;;;;;;4906351;29;20272;-78
2022/05/01 06:03:15;;;;;;;9.17;7.77;;;8.60;99.90;;;;;;4903703;29;20236;-78
2022/05/01 06:05:59;;;;;;;12.97;8.90;;;8.60;99.90;;;;;;4904498;29;20212;-78
2022/05/01 06:08:44;;;;;;;12.17;8.77;;;8.60;99.90;;;;;;4903086;29;20261;-79
2022/05/01 06:11:28;;;;;;;15.67;8.93;;;8.60;99.90;;;;;;4909172;29;20234;-78
2022/05/01 06:14:12;;;;;;;12.93;8.77;;;8.60;99.90;;;;;;4902534;29;20203;-79
2022/05/01 06:16:56;;;;;;;12.40;9.60;;;8.60;99.90;;;;;;4905889;29;20208;-79
2022/05/01 06:19:41;;;;;;;13.50;8.97;;;8.60;99.90;;;;;;4904644;29;20203;-79
2022/05/01 06:22:25;;;;;;;12.40;9.03;;;8.60;99.90;;;;;;4902337;29;20404;-78
2022/05/01 06:25:09;;;;;;;14.27;9.43;;;8.70;99.90;;;;;;4898682;29;20814;-78
2022/05/01 06:27:54;;;;;;;10.77;8.33;;;8.70;99.90;;;;;;4900074;29;20587;-78
2022/05/01 06:30:43;;;;;;;12.90;9.07;;;8.70;99.90;;;;;;4918125;29;20219;-79
2022/05/01 06:33:30;;;;;;;11.07;8.77;;;8.80;99.90;;;;;;4907075;29;20264;-79
2022/05/01 06:36:16;;;;;;;11.33;7.93;;;8.80;99.90;;;;;;4895116;29;20195;-78
2022/05/01 06:39:01;;;;;;;10.97;7.93;;;8.80;99.90;;;;;;4888994;29;20300;-79
2022/05/01 06:42:06;;;;;;;10.70;7.70;;;8.80;99.90;;;;;;4904942;29;20752;-78
2022/05/01 06:44:50;;;;;;;12.27;7.93;;;8.90;99.90;;;;;;4888142;29;20191;-78
2022/05/01 06:47:35;;;;;;;10.97;7.47;;;8.90;99.90;;;;;;4905106;29;20193;-79
2022/05/01 06:50:20;;;;;;;8.43;7.03;;;9.00;99.90;;;;;;4908636;29;20232;-78
2022/05/01 06:53:05;;;;;;;11.23;7.73;;;9.00;99.90;;;;;;4906924;29;20214;-77
2022/05/01 06:55:50;;;;;;;13.77;7.27;;;9.10;99.90;;;;;;4899120;29;20243;-78
2022/05/01 06:58:35;;;;;;;12.20;6.93;;;9.10;99.90;;;;;;4901384;29;20207;-78
2022/05/01 07:01:19;;;;;;;10.47;6.57;;;9.20;99.90;;;;;;4906073;29;20275;-78
2022/05/01 07:04:03;;;;;;;10.90;7.13;;;9.20;99.90;;;;;;4907594;29;20196;-77
2022/05/01 07:06:47;;;;;;;8.97;6.97;;;9.20;99.90;;;;;;4900431;29;20208;-78
2022/05/01 07:09:32;;;;;;;14.60;7.20;;;9.20;99.90;;;;;;4899799;29;20229;-77
2022/05/01 07:12:17;;;;;;;9.63;6.80;;;9.30;99.90;;;;;;4900528;29;20228;-76
2022/05/01 07:15:02;;;;;;;8.77;7.00;;;9.30;99.90;;;;;;4907322;29;20199;-77
2022/05/01 07:17:47;;;;;;;10.83;6.30;;;9.40;99.90;;;;;;4905229;29;20243;-77
2022/05/01 07:20:34;;;;;;;11.37;6.60;;;9.50;99.90;;;;;;4910186;29;20296;-77
2022/05/01 07:23:22;;;;;;;8.53;6.80;;;9.50;99.90;;;;;;4909459;29;20192;-77
2022/05/01 07:26:07;;;;;;;10.97;6.87;;;9.60;99.90;;;;;;4887467;29;20204;-77
2022/05/01 07:28:51;;;;;;;10.83;7.20;;;9.60;99.90;;;;;;4911993;29;20712;-77
2022/05/01 07:31:37;;;;;;;15.47;7.37;;;9.60;99.90;;;;;;4901181;29;20227;-77
2022/05/01 07:34:21;;;;;;;9.17;7.13;;;9.60;99.90;;;;;;4905071;29;20208;-77
2022/05/01 07:37:05;;;;;;;9.83;7.30;;;9.70;99.90;;;;;;4898207;29;20188;-78
2022/05/01 07:39:50;;;;;;;8.20;7.30;;;9.80;99.90;;;;;;4903353;29;20199;-77
2022/05/01 07:42:35;;;;;;;9.30;6.60;;;9.80;99.90;;;;;;4897641;29;20248;-78
2022/05/01 07:45:19;;;;;;;10.67;7.63;;;9.90;99.90;;;;;;4893071;29;20203;-78
2022/05/01 07:48:04;;;;;;;10.03;7.10;;;9.90;99.90;;;;;;4897061;29;20396;-79
2022/05/01 07:50:48;;;;;;;11.40;6.50;;;10.00;99.90;;;;;;4900200;29;20271;-79
2022/05/01 07:53:33;;;;;;;8.73;7.20;;;10.00;99.90;;;;;;4903247;29;20252;-78
2022/05/01 07:56:17;;;;;;;8.97;6.90;;;10.00;99.90;;;;;;4887136;29;20207;-79
2022/05/01 07:59:02;;;;;;;10.57;6.80;;;10.10;99.90;;;;;;4902251;29;20201;-77
2022/05/01 08:01:47;;;;;;;9.97;7.17;;;10.10;99.90;;;;;;4897317;29;20284;-78
2022/05/01 08:04:32;;;;;;;8.93;6.20;;;10.20;99.90;;;;;;4902521;29;20199;-78
2022/05/01 08:07:16;;;;;;;10.20;6.53;;;10.30;99.90;;;;;;4900668;29;20202;-79
2022/05/01 08:10:01;;;;;;;8.00;5.90;;;10.30;99.90;;;;;;4902320;29;20207;-79
2022/05/01 08:12:47;;;;;;;7.87;5.77;;;10.40;99.90;;;;;;4899778;29;20219;-78
2022/05/01 08:15:31;;;;;;;9.10;6.03;;;10.40;99.90;;;;;;4887200;29;20180;-78
2022/05/01 08:21:18;;;;;;;10.30;6.10;;;10.50;99.90;;;;;;4903240;29;20234;-78
2022/05/01 08:24:03;;;;;;;6.53;5.87;;;10.50;99.90;;;;;;4901156;29;20208;-79
2022/05/01 08:26:48;;;;;;;7.73;5.70;;;10.60;99.90;;;;;;4892354;29;20200;-79
2022/05/01 08:29:34;;;;;;;7.27;6.03;;;10.70;99.90;;;;;;4899022;29;20256;-78
2022/05/01 08:32:18;;;;;;;8.53;5.37;;;10.70;99.90;;;;;;4893654;29;20226;-78
2022/05/01 08:35:02;;;;;;;6.43;5.60;;;10.80;99.90;;;;;;4888930;29;20195;-79
2022/05/01 08:37:47;;;;;;;8.47;5.77;;;10.80;99.90;;;;;;4903608;29;20188;-79
2022/05/01 08:40:32;;;;;;;7.77;5.33;;;10.90;99.90;;;;;;4898761;29;20268;-78
2022/05/01 08:43:18;;;;;;;6.13;5.07;;;10.90;99.90;;;;;;4895539;29;20188;-79
2022/05/01 08:46:27;;;;;;;7.57;5.50;;;10.90;99.90;;;;;;4892068;29;20245;-79
2022/05/01 08:49:16;;;;;;;7.17;5.10;;;10.90;99.90;;;;;;4889121;29;20191;-79
2022/05/01 08:52:01;;;;;;;8.00;5.73;;;11.00;99.90;;;;;;4892352;29;20274;-79
2022/05/01 08:54:48;;;;;;;9.30;5.33;;;11.00;99.90;;;;;;4894529;29;20249;-79
2022/05/01 08:57:33;;;;;;;6.03;4.80;;;11.00;99.90;;;;;;4900387;29;20197;-79
2022/05/01 09:00:18;;;;;;;14.60;4.50;;;11.00;99.90;;;;;;4900722;29;20219;-79
2022/05/01 09:03:05;;;;;;;7.63;5.33;;;11.10;99.90;;;;;;4901581;29;20230;-79
2022/05/01 09:05:49;;;;;;;8.00;6.00;;;11.20;99.90;;;;;;4894489;29;20208;-80
2022/05/01 09:08:36;;;;;;;5.47;4.80;;;11.20;99.90;;;;;;4901798;29;20204;-79
2022/05/01 09:14:26;;;;;;;6.93;5.43;;;11.40;99.90;;;;;;4902436;29;20200;-80
2022/05/01 09:17:19;;;;;;;5.50;4.97;;;11.50;99.90;;;;;;4907474;29;20228;-80
2022/05/01 09:20:10;;;;;;;5.97;5.40;;;11.60;99.90;;;;;;4913168;29;20176;-80
2022/05/01 09:22:56;;;;;;;7.50;5.10;;;11.60;99.90;;;;;;4898514;29;20713;-79
2022/05/01 09:25:40;;;;;;;7.40;5.30;;;11.80;99.90;;;;;;4898540;29;20672;-78
2022/05/01 09:28:24;;;;;;;9.57;4.93;;;11.80;99.90;;;;;;4898735;29;20191;-78
2022/05/01 09:31:08;;;;;;;5.47;4.93;;;11.90;99.90;;;;;;4898026;29;20227;-78
2022/05/01 09:34:21;;;;;;;6.60;4.50;;;11.90;99.90;;;;;;4904750;29;20244;-79
2022/05/01 09:37:19;;;;;;;5.30;4.60;;;11.90;99.90;;;;;;4900239;29;20555;-78
2022/05/01 09:40:04;;;;;;;4.97;4.47;;;11.90;99.90;;;;;;4898512;29;20192;-78
2022/05/01 09:42:48;;;;;;;8.50;4.30;;;12.00;99.90;;;;;;4903960;29;20652;-79
2022/05/01 09:45:32;;;;;;;6.17;3.73;;;12.10;99.90;;;;;;4900004;29;20565;-78
2022/05/01 09:48:22;;;;;;;4.83;3.57;;;12.00;99.90;;;;;;4893458;29;20214;-79
2022/05/01 09:51:17;;;;;;;5.77;4.20;;;12.00;99.90;;;;;;4905312;29;20278;-78
2022/05/01 09:54:03;;;;;;;5.73;3.87;;;12.10;99.90;;;;;;4897340;29;20213;-78
2022/05/01 09:57:01;;;;;;;5.30;4.00;;;12.10;99.90;;;;;;4897969;29;20277;-80
2022/05/01 09:59:46;;;;;;;5.63;4.30;;;12.20;99.90;;;;;;4901383;29;20387;-79
2022/05/01 10:02:31;;;;;;;5.23;4.27;;;12.20;99.90;;;;;;4902789;29;20208;-81
2022/05/01 10:05:16;;;;;;;5.90;3.90;;;12.30;99.90;;;;;;4905142;29;20211;-81
2022/05/01 10:08:00;;;;;;;4.97;3.97;;;12.30;99.90;;;;;;4907597;29;20199;-79
2022/05/01 10:10:47;;;;;;;4.40;3.57;;;12.40;99.90;;;;;;4897461;29;20308;-81
2022/05/01 10:13:32;;;;;;;4.20;3.77;;;12.50;99.90;;;;;;4902000;29;20276;-81
2022/05/01 10:16:17;;;;;;;6.50;4.00;;;12.50;99.90;;;;;;4905172;29;20217;-81
2022/05/01 10:19:02;;;;;;;4.33;3.83;;;12.60;99.90;;;;;;4900733;29;20696;-80
2022/05/01 10:21:48;;;;;;;5.80;3.40;;;12.70;99.90;;;;;;4911007;29;20247;-80
2022/05/01 10:24:34;;;;;;;3.80;3.47;;;12.70;99.90;;;;;;4900205;29;20181;-80
2022/05/01 10:27:47;;;;;;;6.77;3.93;;;12.80;99.90;;;;;;4907636;29;20228;-80
2022/05/01 10:34:19;;;;;;;5.07;3.40;;;12.90;99.90;;;;;;4902160;29;20211;-80
2022/05/01 10:37:28;;;;;;;4.33;3.90;;;13.00;99.90;;;;;;4893830;29;20196;-80
2022/05/01 10:40:13;;;;;;;4.90;3.70;;;13.00;99.90;;;;;;4901465;29;20249;-80
2022/05/01 10:43:02;;;;;;;4.60;4.03;;;13.00;99.90;;;;;;4901681;29;20283;-79
2022/05/01 10:45:46;;;;;;;4.43;3.80;;;13.20;99.90;;;;;;4913078;29;20583;-80
2022/05/01 10:48:41;;;;;;;4.00;3.67;;;13.20;99.90;;;;;;4908225;29;20199;-80
2022/05/01 10:51:31;;;;;;;5.33;3.90;;;13.30;99.90;;;;;;4909285;29;20421;-79
2022/05/01 10:54:19;;;;;;;4.57;3.60;;;13.30;99.90;;;;;;4901558;29;20219;-80
2022/05/01 10:57:10;;;;;;;3.97;3.57;;;13.40;99.90;;;;;;4910401;29;20198;-80
2022/05/01 11:00:15;;;;;;;3.40;3.10;;;13.30;99.90;;;;;;4903728;29;20204;-80
2022/05/01 11:03:23;;;;;;;5.80;3.60;;;13.30;99.90;;;;;;4903597;29;20199;-80
2022/05/01 11:06:08;;;;;;;5.70;3.90;;;13.30;99.90;;;;;;4902855;29;20285;-79
2022/05/01 11:08:56;;;;;;;7.53;3.93;;;13.30;99.90;;;;;;4893318;29;20252;-80
2022/05/01 11:11:43;;;;;;;3.70;3.40;;;13.40;99.90;;;;;;4903544;29;20223;-79
2022/05/01 11:14:40;;;;;;;5.40;3.53;;;13.50;99.90;;;;;;4902702;29;20200;-79
2022/05/01 11:17:39;;;;;;;4.83;3.90;;;13.50;99.90;;;;;;4901480;29;20284;-80
2022/05/01 11:20:25;;;;;;;4.10;3.40;;;13.60;99.90;;;;;;4907647;29;20212;-80
2022/05/01 11:23:35;;;;;;;7.03;4.53;;;13.60;99.90;;;;;;4911095;29;20233;-80
2022/05/01 11:26:19;;;;;;;6.37;3.90;;;13.70;99.90;;;;;;4908777;29;20203;-79
2022/05/01 11:29:13;;;;;;;4.27;3.80;;;13.70;99.90;;;;;;4911625;29;20272;-79
2022/05/01 11:32:17;;;;;;;3.70;3.40;;;13.70;99.90;;;;;;4914970;29;20302;-80
2022/05/01 11:35:03;;;;;;;4.10;3.70;;;13.70;99.90;;;;;;4897566;29;20569;-80
2022/05/01 11:38:06;;;;;;;4.63;3.53;;;13.80;99.90;;;;;;4901597;29;20207;-80
2022/05/01 11:40:55;;;;;;;4.00;3.47;;;13.90;99.90;;;;;;4897010;29;20212;-80
2022/05/01 11:43:39;;;;;;;6.37;4.00;;;14.00;99.90;;;;;;4911056;29;20576;-79
2022/05/01 11:46:24;;;;;;;5.67;4.23;;;13.90;99.90;;;;;;4896765;29;20228;-79
2022/05/01 11:49:09;;;;;;;6.47;4.27;;;14.00;99.90;;;;;;4902550;29;20210;-79
2022/05/01 11:51:57;;;;;;;5.53;4.10;;;14.00;99.90;;;;;;4901922;29;20222;-80
2022/05/01 11:54:54;;;;;;;8.27;4.23;;;14.10;99.90;;;;;;4902930;29;20203;-79
2022/05/01 12:03:56;;;;;;;6.97;4.07;;;14.20;99.90;;;;;;4878826;29;20200;-80
2022/05/01 12:06:42;;;;;;;4.40;3.67;;;14.20;99.90;;;;;;4902090;29;20772;-79
2022/05/01 12:09:27;;;;;;;5.77;3.87;;;14.20;99.90;;;;;;4911759;29;20199;-79
2022/05/01 12:12:14;;;;;;;5.53;3.97;;;14.20;99.90;;;;;;4900259;29;20219;-80
2022/05/01 12:15:00;;;;;;;4.57;4.07;;;14.20;99.90;;;;;;4898073;29;20239;-79
2022/05/01 12:17:44;;;;;;;4.50;4.10;;;14.20;99.90;;;;;;4903556;29;20203;-79
2022/05/01 12:20:34;;;;;;;4.43;3.97;;;14.20;99.90;;;;;;4896062;29;20284;-80
2022/05/01 12:23:22;;;;;;;4.80;4.37;;;14.20;99.90;;;;;;4897771;29;20226;-79
2022/05/01 12:26:06;;;;;;;6.30;4.30;;;14.20;99.90;;;;;;4894478;29;20746;-79
2022/05/01 12:28:50;;;;;;;4.97;4.40;;;14.20;99.90;;;;;;4909280;29;20269;-79
2022/05/01 12:32:13;;;;;;;4.57;4.07;;;14.20;99.90;;;;;;4903088;29;20235;-80
2022/05/01 12:35:03;;;;;;;5.67;3.90;;;14.20;99.90;;;;;;4892743;29;20188;-80
2022/05/01 12:37:48;;;;;;;6.17;3.90;;;14.20;99.90;;;;;;4884446;29;20232;-78
2022/05/01 12:43:53;;;;;;;5.03;3.83;;;14.10;99.90;;;;;;4868206;29;20217;-79
2022/05/01 12:46:39;;;;;;;6.10;4.20;;;14.10;99.90;;;;;;4902635;29;20195;-80
2022/05/01 12:49:25;;;;;;;4.67;3.60;;;14.10;99.90;;;;;;4901709;29;20215;-79
2022/05/01 12:52:30;;;;;;;5.13;4.30;;;14.00;99.90;;;;;;4905771;29;20227;-79
2022/05/01 12:55:16;;;;;;;9.00;4.23;;;14.00;99.90;;;;;;4897795;29;20688;-78
2022/05/01 12:58:03;;;;;;;5.17;4.17;;;13.90;99.90;;;;;;4905259;29;20264;-79
2022/05/01 13:00:49;;;;;;;6.63;4.03;;;13.90;99.90;;;;;;4903958;29;20222;-79
2022/05/01 13:03:36;;;;;;;6.83;4.43;;;13.90;99.90;;;;;;4900995;29;20196;-81
2022/05/01 13:06:22;;;;;;;5.07;4.20;;;14.00;99.90;;;;;;4904584;29;20320;-80
2022/05/01 13:09:09;;;;;;;5.97;4.03;;;13.90;99.90;;;;;;4906913;29;20184;-80
2022/05/01 13:12:04;;;;;;;5.07;4.10;;;13.90;99.90;;;;;;4902539;29;20219;-79
2022/05/01 13:14:57;;;;;;;5.30;4.07;;;13.90;99.90;;;;;;4904861;29;20390;-79
2022/05/01 13:18:00;;;;;;;6.80;4.03;;;13.90;99.90;;;;;;4895975;29;20250;-78
2022/05/01 13:20:44;;;;;;;7.27;4.43;;;14.00;99.90;;;;;;4898514;29;20264;-80
2022/05/01 13:23:28;;;;;;;6.83;4.67;;;14.00;99.90;;;;;;4901977;29;20204;-80
2022/05/01 13:26:13;;;;;;;6.07;4.37;;;13.90;99.90;;;;;;4909193;29;20276;-79
2022/05/01 13:28:57;;;;;;;5.77;4.23;;;14.00;99.90;;;;;;4893955;29;20347;-79
2022/05/01 13:31:43;;;;;;;6.37;3.90;;;14.00;99.90;;;;;;4902663;29;20227;-79
2022/05/01 13:34:28;;;;;;;4.70;4.20;;;14.00;99.90;;;;;;4906441;29;20235;-79
2022/05/01 13:37:13;;;;;;;10.33;4.50;;;14.00;99.90;;;;;;4888884;29;20248;-79
2022/05/01 13:46:03;;;;;;;6.33;4.47;;;14.30;99.90;;;;;;4904190;29;20214;-80
2022/05/01 13:48:51;;;;;;;4.80;4.10;;;14.40;99.90;;;;;;4904067;29;20192;-79
2022/05/01 13:51:35;;;;;;;7.27;4.20;;;14.40;99.90;;;;;;4907589;29;20227;-80
2022/05/01 13:54:19;;;;;;;6.47;4.50;;;14.50;99.90;;;;;;4902526;29;20265;-79
2022/05/01 13:57:04;;;;;;;6.10;4.20;;;14.50;99.90;;;;;;4905997;29;20730;-80
2022/05/01 13:59:49;;;;;;;5.50;4.17;;;14.50;99.90;;;;;;4908671;29;20711;-79
2022/05/01 14:02:35;;;;;;;8.00;4.47;;;14.50;99.90;;;;;;4901234;29;20211;-80
2022/05/01 14:05:19;;;;;;;6.77;4.50;;;14.50;99.90;;;;;;4905678;29;20231;-79
2022/05/01 14:08:04;;;;;;;7.57;4.57;;;14.50;99.90;;;;;;4907088;29;20200;-80
2022/05/01 14:10:48;;;;;;;5.93;4.60;;;14.60;99.90;;;;;;4884222;29;20263;-78
2022/05/01 14:13:33;;;;;;;7.77;4.80;;;14.40;99.90;;;;;;4908812;29;20205;-79
2022/05/01 14:16:18;;;;;;;8.57;4.50;;;14.40;99.90;;;;;;4897158;29;20189;-80
2022/05/01 14:19:02;;;;;;;7.40;4.43;;;14.40;99.90;;;;;;4910859;29;20245;-80
2022/05/01 14:21:48;;;;;;;6.30;4.53;;;14.30;99.90;;;;;;4903007;29;20366;-79
2022/05/01 14:24:34;;;;;;;5.47;4.20;;;14.30;99.90;;;;;;4900586;29;20199;-80
2022/05/01 14:27:20;;;;;;;6.90;5.33;;;14.40;99.90;;;;;;4902411;29;20304;-79
2022/05/01 14:30:04;;;;;;;7.37;4.50;;;14.40;99.90;;;;;;4911656;29;20259;-80
2022/05/01 14:32:53;;;;;;;6.03;4.77;;;14.40;99.90;;;;;;4907382;29;20300;-79
2022/05/01 14:35:39;;;;;;;6.27;4.90;;;14.40;99.90;;;;;;4889730;29;20247;-79
2022/05/01 14:38:29;;;;;;;5.67;4.90;;;14.40;99.90;;;;;;4904399;29;20253;-79
2022/05/01 14:41:22;;;;;;;5.07;4.07;;;14.50;99.90;;;;;;4903384;29;20227;-79
2022/05/01 14:44:09;;;;;;;4.70;4.20;;;14.60;99.90;;;;;;4898476;29;20183;-79
2022/05/01 14:46:56;;;;;;;9.77;4.87;;;14.60;99.90;;;;;;4912233;29;20580;-78
2022/05/01 14:49:46;;;;;;;8.53;4.40;;;14.60;99.90;;;;;;4903868;29;20215;-79
2022/05/01 14:52:31;;;;;;;6.27;4.60;;;14.60;99.90;;;;;;4910648;29;20339;-80
2022/05/01 14:55:15;;;;;;;5.37;4.40;;;14.60;99.90;;;;;;4902694;29;20243;-80
2022/05/01 14:58:02;;;;;;;7.33;4.67;;;14.50;99.90;;;;;;4897348;29;20206;-80
2022/05/01 15:06:59;;;;;;;8.03;4.53;;;14.50;99.90;;;;;;4906702;29;20196;-79
2022/05/01 15:09:47;;;;;;;6.20;4.63;;;14.50;99.90;;;;;;4889548;29;20240;-79
2022/05/01 15:12:31;;;;;;;7.40;4.50;;;14.40;99.90;;;;;;4911157;29;20241;-79
2022/05/01 15:15:17;;;;;;;9.33;5.00;;;14.50;99.90;;;;;;4908086;29;20221;-80
2022/05/01 15:18:05;;;;;;;6.63;4.60;;;14.60;99.90;;;;;;4899553;29;20679;-79
2022/05/01 15:22:20;;;;;;;6.20;4.87;;;14.50;99.90;;;;;;4903461;29;20219;-80
2022/05/01 15:25:02;;;;;;;5.03;4.00;;;14.50;99.90;;;;;;4887237;29;20565;-80